Terminal Aerodrome Forecast
Issued by NWS

Home | Current Version | Previous Version | Text Only | Print | Product List | Glossary On
Versions: 1 2 3 4 5 6 7 8 9 10 11 12 13 14 15 16 17 18 19 20 21 22 23 24 25 26 27 28 29 30 31 32 33 34 35 36 37 38 39 40 41 42
000
FTAK31 PANC 310522
TAFADQ
TAF
PADQ 310522Z 3106/0106 35010KT P6SM VCSH SCT015 BKN025
      TEMPO 3106/3109 5SM -SHRA BR FEW008 BKN015
     FM310900 01012G18KT P6SM VCSH SCT015 BKN025
     FM311200 02020G28KT P6SM VCSH SCT015 BKN025
     FM312000 02022G30KT P6SM SCT025 BKN040=

USA.gov is the U.S. government's official web portal to all federal, state and local government web resources and services.